sensor_id;sensor_type;location;lat;lon;timestamp;P1;durP1;ratioP1;P2;durP2;ratioP2
77111;SDS011;66064;50.226;14.344;2023-01-23T00:01:13;55.70;;;37.40;;
77111;SDS011;66064;50.226;14.344;2023-01-23T00:03:46;54.47;;;33.88;;
77111;SDS011;66064;50.226;14.344;2023-01-23T00:06:13;59.75;;;33.65;;
77111;SDS011;66064;50.226;14.344;2023-01-23T00:08:50;58.60;;;33.85;;
77111;SDS011;66064;50.226;14.344;2023-01-23T00:11:17;68.95;;;39.58;;
77111;SDS011;66064;50.226;14.344;2023-01-23T00:13:45;55.28;;;32.25;;
77111;SDS011;66064;50.226;14.344;2023-01-23T00:16:12;51.28;;;32.25;;
77111;SDS011;66064;50.226;14.344;2023-01-23T00:18:52;49.40;;;31.85;;
77111;SDS011;66064;50.226;14.344;2023-01-23T00:21:21;47.95;;;31.77;;
77111;SDS011;66064;50.226;14.344;2023-01-23T00:23:50;54.53;;;32.50;;
77111;SDS011;66064;50.226;14.344;2023-01-23T00:26:22;50.08;;;30.00;;
77111;SDS011;66064;50.226;14.344;2023-01-23T00:28:51;38.85;;;28.30;;
77111;SDS011;66064;50.226;14.344;2023-01-23T00:31:18;48.38;;;28.50;;
77111;SDS011;66064;50.226;14.344;2023-01-23T00:33:46;51.35;;;29.05;;
77111;SDS011;66064;50.226;14.344;2023-01-23T00:36:13;43.60;;;30.10;;
77111;SDS011;66064;50.226;14.344;2023-01-23T00:38:40;49.60;;;30.40;;
77111;SDS011;66064;50.226;14.344;2023-01-23T00:41:06;44.67;;;28.95;;
77111;SDS011;66064;50.226;14.344;2023-01-23T00:43:46;45.50;;;32.40;;
77111;SDS011;66064;50.226;14.344;2023-01-23T00:46:12;53.00;;;29.17;;
77111;SDS011;66064;50.226;14.344;2023-01-23T00:48:39;45.30;;;30.13;;
77111;SDS011;66064;50.226;14.344;2023-01-23T00:51:04;43.03;;;27.70;;
77111;SDS011;66064;50.226;14.344;2023-01-23T00:53:38;39.67;;;28.45;;
77111;SDS011;66064;50.226;14.344;2023-01-23T00:56:04;43.90;;;29.83;;
77111;SDS011;66064;50.226;14.344;2023-01-23T00:58:30;48.22;;;30.55;;
77111;SDS011;66064;50.226;14.344;2023-01-23T01:00:56;44.47;;;33.28;;
77111;SDS011;66064;50.226;14.344;2023-01-23T01:03:26;46.83;;;31.60;;
77111;SDS011;66064;50.226;14.344;2023-01-23T01:05:55;43.63;;;28.60;;
77111;SDS011;66064;50.226;14.344;2023-01-23T01:08:24;44.38;;;27.70;;
77111;SDS011;66064;50.226;14.344;2023-01-23T01:10:49;41.72;;;27.10;;
77111;SDS011;66064;50.226;14.344;2023-01-23T01:13:18;46.05;;;28.90;;
77111;SDS011;66064;50.226;14.344;2023-01-23T01:15:47;37.90;;;25.33;;
77111;SDS011;66064;50.226;14.344;2023-01-23T01:18:33;38.60;;;30.08;;
77111;SDS011;66064;50.226;14.344;2023-01-23T01:21:00;35.70;;;25.98;;
77111;SDS011;66064;50.226;14.344;2023-01-23T01:23:29;40.42;;;24.58;;
77111;SDS011;66064;50.226;14.344;2023-01-23T01:28:49;43.85;;;25.55;;
77111;SDS011;66064;50.226;14.344;2023-01-23T01:31:15;39.63;;;27.08;;
77111;SDS011;66064;50.226;14.344;2023-01-23T01:33:42;37.35;;;26.77;;
77111;SDS011;66064;50.226;14.344;2023-01-23T01:36:14;39.30;;;26.92;;
77111;SDS011;66064;50.226;14.344;2023-01-23T01:38:42;37.70;;;26.60;;
77111;SDS011;66064;50.226;14.344;2023-01-23T01:41:08;36.50;;;24.95;;
77111;SDS011;66064;50.226;14.344;2023-01-23T01:43:36;40.85;;;26.95;;
77111;SDS011;66064;50.226;14.344;2023-01-23T01:57:06;29.88;;;25.30;;
77111;SDS011;66064;50.226;14.344;2023-01-23T01:59:46;38.80;;;29.20;;
77111;SDS011;66064;50.226;14.344;2023-01-23T02:02:22;38.08;;;25.20;;
77111;SDS011;66064;50.226;14.344;2023-01-23T02:04:53;41.75;;;29.02;;
77111;SDS011;66064;50.226;14.344;2023-01-23T02:07:31;38.17;;;27.98;;
77111;SDS011;66064;50.226;14.344;2023-01-23T02:15:51;39.15;;;26.15;;
77111;SDS011;66064;50.226;14.344;2023-01-23T02:21:12;35.47;;;26.00;;
77111;SDS011;66064;50.226;14.344;2023-01-23T02:26:45;37.72;;;26.50;;
77111;SDS011;66064;50.226;14.344;2023-01-23T02:29:11;42.05;;;27.73;;
77111;SDS011;66064;50.226;14.344;2023-01-23T02:31:38;34.88;;;27.77;;
77111;SDS011;66064;50.226;14.344;2023-01-23T02:34:08;37.63;;;26.92;;
77111;SDS011;66064;50.226;14.344;2023-01-23T02:36:36;29.30;;;24.08;;
77111;SDS011;66064;50.226;14.344;2023-01-23T02:41:35;36.28;;;26.08;;
77111;SDS011;66064;50.226;14.344;2023-01-23T02:44:08;32.95;;;25.77;;
77111;SDS011;66064;50.226;14.344;2023-01-23T02:46:41;31.73;;;26.42;;
77111;SDS011;66064;50.226;14.344;2023-01-23T02:49:06;43.10;;;29.95;;
77111;SDS011;66064;50.226;14.344;2023-01-23T02:51:53;33.38;;;24.50;;
77111;SDS011;66064;50.226;14.344;2023-01-23T02:54:27;39.40;;;27.05;;
77111;SDS011;66064;50.226;14.344;2023-01-23T02:56:53;31.02;;;24.25;;
77111;SDS011;66064;50.226;14.344;2023-01-23T02:59:29;32.17;;;25.05;;
77111;SDS011;66064;50.226;14.344;2023-01-23T03:02:14;32.10;;;25.40;;
77111;SDS011;66064;50.226;14.344;2023-01-23T03:04:40;33.22;;;27.30;;
77111;SDS011;66064;50.226;14.344;2023-01-23T03:07:06;30.95;;;23.40;;
77111;SDS011;66064;50.226;14.344;2023-01-23T03:09:34;33.83;;;25.73;;
77111;SDS011;66064;50.226;14.344;2023-01-23T03:12:02;29.17;;;25.55;;
77111;SDS011;66064;50.226;14.344;2023-01-23T03:14:31;33.53;;;23.35;;
77111;SDS011;66064;50.226;14.344;2023-01-23T03:16:59;33.50;;;25.58;;
77111;SDS011;66064;50.226;14.344;2023-01-23T03:22:05;44.20;;;27.83;;
77111;SDS011;66064;50.226;14.344;2023-01-23T03:27:08;51.53;;;31.65;;
77111;SDS011;66064;50.226;14.344;2023-01-23T03:29:34;51.45;;;32.58;;
77111;SDS011;66064;50.226;14.344;2023-01-23T03:32:19;45.28;;;29.67;;
77111;SDS011;66064;50.226;14.344;2023-01-23T03:34:46;42.03;;;29.13;;
77111;SDS011;66064;50.226;14.344;2023-01-23T03:37:12;47.67;;;28.38;;
77111;SDS011;66064;50.226;14.344;2023-01-23T03:39:39;34.70;;;27.40;;
77111;SDS011;66064;50.226;14.344;2023-01-23T03:42:24;33.80;;;28.92;;
77111;SDS011;66064;50.226;14.344;2023-01-23T03:44:50;42.33;;;30.63;;
77111;SDS011;66064;50.226;14.344;2023-01-23T03:47:39;32.45;;;26.77;;
77111;SDS011;66064;50.226;14.344;2023-01-23T03:50:05;35.90;;;26.00;;
77111;SDS011;66064;50.226;14.344;2023-01-23T03:52:32;32.85;;;24.65;;
77111;SDS011;66064;50.226;14.344;2023-01-23T03:54:57;33.08;;;26.50;;
77111;SDS011;66064;50.226;14.344;2023-01-23T03:57:26;36.05;;;25.67;;
77111;SDS011;66064;50.226;14.344;2023-01-23T03:59:52;35.97;;;26.10;;
77111;SDS011;66064;50.226;14.344;2023-01-23T04:02:18;28.83;;;25.38;;
77111;SDS011;66064;50.226;14.344;2023-01-23T04:04:44;37.15;;;23.38;;
77111;SDS011;66064;50.226;14.344;2023-01-23T04:07:32;28.42;;;23.30;;
77111;SDS011;66064;50.226;14.344;2023-01-23T04:10:03;30.75;;;23.67;;
77111;SDS011;66064;50.226;14.344;2023-01-23T04:12:33;33.35;;;24.30;;
77111;SDS011;66064;50.226;14.344;2023-01-23T04:14:59;29.88;;;22.83;;
77111;SDS011;66064;50.226;14.344;2023-01-23T04:20:20;29.80;;;22.83;;
77111;SDS011;66064;50.226;14.344;2023-01-23T04:23:06;39.67;;;26.33;;
77111;SDS011;66064;50.226;14.344;2023-01-23T04:25:32;38.15;;;28.45;;
77111;SDS011;66064;50.226;14.344;2023-01-23T04:27:59;48.72;;;32.53;;
77111;SDS011;66064;50.226;14.344;2023-01-23T04:30:33;54.30;;;35.28;;
77111;SDS011;66064;50.226;14.344;2023-01-23T04:32:59;60.03;;;37.85;;
77111;SDS011;66064;50.226;14.344;2023-01-23T04:35:27;58.78;;;36.65;;
77111;SDS011;66064;50.226;14.344;2023-01-23T04:37:53;53.28;;;31.67;;
77111;SDS011;66064;50.226;14.344;2023-01-23T04:40:19;44.95;;;27.15;;
77111;SDS011;66064;50.226;14.344;2023-01-23T04:42:46;51.35;;;33.75;;
77111;SDS011;66064;50.226;14.344;2023-01-23T04:45:12;82.43;;;45.03;;
77111;SDS011;66064;50.226;14.344;2023-01-23T04:47:38;75.10;;;42.30;;
77111;SDS011;66064;50.226;14.344;2023-01-23T04:50:17;61.33;;;39.00;;
77111;SDS011;66064;50.226;14.344;2023-01-23T04:52:43;58.80;;;37.42;;
77111;SDS011;66064;50.226;14.344;2023-01-23T04:55:09;47.90;;;34.22;;
77111;SDS011;66064;50.226;14.344;2023-01-23T04:57:36;51.47;;;33.70;;
77111;SDS011;66064;50.226;14.344;2023-01-23T05:00:02;40.08;;;29.77;;
77111;SDS011;66064;50.226;14.344;2023-01-23T05:02:28;44.72;;;30.25;;
77111;SDS011;66064;50.226;14.344;2023-01-23T05:04:54;41.53;;;29.23;;
77111;SDS011;66064;50.226;14.344;2023-01-23T05:07:20;37.90;;;30.20;;
77111;SDS011;66064;50.226;14.344;2023-01-23T05:09:55;34.17;;;27.83;;
77111;SDS011;66064;50.226;14.344;2023-01-23T05:12:22;35.13;;;27.25;;
77111;SDS011;66064;50.226;14.344;2023-01-23T05:14:47;40.95;;;30.90;;
77111;SDS011;66064;50.226;14.344;2023-01-23T05:17:21;38.65;;;31.02;;
77111;SDS011;66064;50.226;14.344;2023-01-23T05:19:46;37.17;;;26.42;;
77111;SDS011;66064;50.226;14.344;2023-01-23T05:22:12;42.47;;;29.25;;
77111;SDS011;66064;50.226;14.344;2023-01-23T05:24:38;46.53;;;27.83;;
77111;SDS011;66064;50.226;14.344;2023-01-23T05:27:04;48.28;;;28.83;;
77111;SDS011;66064;50.226;14.344;2023-01-23T05:29:30;42.67;;;27.90;;
77111;SDS011;66064;50.226;14.344;2023-01-23T05:31:56;44.05;;;27.67;;
77111;SDS011;66064;50.226;14.344;2023-01-23T05:34:22;41.40;;;26.50;;
77111;SDS011;66064;50.226;14.344;2023-01-23T05:36:48;53.53;;;30.05;;
77111;SDS011;66064;50.226;14.344;2023-01-23T05:39:14;47.70;;;33.50;;
77111;SDS011;66064;50.226;14.344;2023-01-23T05:41:40;43.50;;;31.52;;
77111;SDS011;66064;50.226;14.344;2023-01-23T05:44:05;47.35;;;36.10;;
77111;SDS011;66064;50.226;14.344;2023-01-23T05:46:39;44.38;;;30.00;;
77111;SDS011;66064;50.226;14.344;2023-01-23T05:49:05;39.75;;;26.55;;
77111;SDS011;66064;50.226;14.344;2023-01-23T05:51:33;35.33;;;29.70;;
77111;SDS011;66064;50.226;14.344;2023-01-23T05:54:00;51.55;;;32.20;;
77111;SDS011;66064;50.226;14.344;2023-01-23T05:56:32;55.08;;;33.05;;
77111;SDS011;66064;50.226;14.344;2023-01-23T05:59:02;66.90;;;35.20;;
77111;SDS011;66064;50.226;14.344;2023-01-23T06:01:29;213.25;;;82.85;;
77111;SDS011;66064;50.226;14.344;2023-01-23T06:04:03;166.15;;;77.75;;
77111;SDS011;66064;50.226;14.344;2023-01-23T06:06:29;196.95;;;84.43;;
77111;SDS011;66064;50.226;14.344;2023-01-23T06:08:54;119.70;;;64.38;;
77111;SDS011;66064;50.226;14.344;2023-01-23T06:11:22;146.25;;;74.28;;
77111;SDS011;66064;50.226;14.344;2023-01-23T06:13:48;126.47;;;66.20;;
77111;SDS011;66064;50.226;14.344;2023-01-23T06:16:17;85.93;;;55.50;;
77111;SDS011;66064;50.226;14.344;2023-01-23T06:18:42;114.53;;;60.25;;
77111;SDS011;66064;50.226;14.344;2023-01-23T06:21:08;130.65;;;67.97;;
77111;SDS011;66064;50.226;14.344;2023-01-23T06:23:34;103.85;;;55.25;;
77111;SDS011;66064;50.226;14.344;2023-01-23T06:26:01;127.53;;;59.88;;
77111;SDS011;66064;50.226;14.344;2023-01-23T06:28:27;125.03;;;59.58;;
77111;SDS011;66064;50.226;14.344;2023-01-23T06:30:56;118.53;;;60.17;;
77111;SDS011;66064;50.226;14.344;2023-01-23T06:33:25;91.63;;;50.60;;
77111;SDS011;66064;50.226;14.344;2023-01-23T06:35:59;142.80;;;66.68;;
77111;SDS011;66064;50.226;14.344;2023-01-23T06:38:30;126.97;;;72.43;;
77111;SDS011;66064;50.226;14.344;2023-01-23T06:40:57;155.88;;;73.47;;
77111;SDS011;66064;50.226;14.344;2023-01-23T06:43:26;149.00;;;73.85;;
77111;SDS011;66064;50.226;14.344;2023-01-23T06:45:52;177.50;;;76.32;;
77111;SDS011;66064;50.226;14.344;2023-01-23T06:48:18;119.00;;;63.13;;
77111;SDS011;66064;50.226;14.344;2023-01-23T06:50:47;134.18;;;60.60;;
77111;SDS011;66064;50.226;14.344;2023-01-23T06:53:13;90.90;;;49.17;;
77111;SDS011;66064;50.226;14.344;2023-01-23T06:55:40;80.32;;;45.28;;
77111;SDS011;66064;50.226;14.344;2023-01-23T06:58:06;38.28;;;27.67;;
77111;SDS011;66064;50.226;14.344;2023-01-23T07:00:39;37.35;;;25.65;;
77111;SDS011;66064;50.226;14.344;2023-01-23T07:03:17;38.25;;;26.30;;
77111;SDS011;66064;50.226;14.344;2023-01-23T07:05:44;41.88;;;30.05;;
77111;SDS011;66064;50.226;14.344;2023-01-23T07:08:10;40.80;;;30.10;;
77111;SDS011;66064;50.226;14.344;2023-01-23T07:10:37;43.20;;;30.52;;
77111;SDS011;66064;50.226;14.344;2023-01-23T07:13:03;37.55;;;27.20;;
77111;SDS011;66064;50.226;14.344;2023-01-23T07:15:33;40.00;;;26.08;;
77111;SDS011;66064;50.226;14.344;2023-01-23T07:17:59;36.38;;;27.40;;
77111;SDS011;66064;50.226;14.344;2023-01-23T07:20:38;47.42;;;30.75;;
77111;SDS011;66064;50.226;14.344;2023-01-23T07:23:04;34.17;;;24.25;;
77111;SDS011;66064;50.226;14.344;2023-01-23T07:25:31;46.83;;;32.13;;
77111;SDS011;66064;50.226;14.344;2023-01-23T07:28:02;44.55;;;30.70;;
77111;SDS011;66064;50.226;14.344;2023-01-23T07:30:28;41.47;;;29.17;;
77111;SDS011;66064;50.226;14.344;2023-01-23T07:32:54;45.90;;;30.95;;
77111;SDS011;66064;50.226;14.344;2023-01-23T07:35:20;46.05;;;32.17;;
77111;SDS011;66064;50.226;14.344;2023-01-23T07:37:46;45.47;;;31.13;;
77111;SDS011;66064;50.226;14.344;2023-01-23T07:40:12;48.25;;;29.08;;
77111;SDS011;66064;50.226;14.344;2023-01-23T07:42:48;47.13;;;31.10;;
77111;SDS011;66064;50.226;14.344;2023-01-23T07:47:40;38.08;;;31.08;;
77111;SDS011;66064;50.226;14.344;2023-01-23T07:50:07;37.88;;;28.02;;
77111;SDS011;66064;50.226;14.344;2023-01-23T07:52:35;45.15;;;30.33;;
77111;SDS011;66064;50.226;14.344;2023-01-23T07:55:01;34.92;;;25.00;;
77111;SDS011;66064;50.226;14.344;2023-01-23T07:57:27;35.92;;;27.58;;
77111;SDS011;66064;50.226;14.344;2023-01-23T07:59:58;37.70;;;28.42;;
77111;SDS011;66064;50.226;14.344;2023-01-23T08:02:24;36.83;;;26.33;;
77111;SDS011;66064;50.226;14.344;2023-01-23T08:04:50;35.35;;;26.60;;
77111;SDS011;66064;50.226;14.344;2023-01-23T08:07:16;32.70;;;24.75;;
77111;SDS011;66064;50.226;14.344;2023-01-23T08:09:44;33.20;;;25.73;;
77111;SDS011;66064;50.226;14.344;2023-01-23T08:12:10;35.97;;;27.63;;
77111;SDS011;66064;50.226;14.344;2023-01-23T08:14:41;44.10;;;31.20;;
77111;SDS011;66064;50.226;14.344;2023-01-23T08:17:06;40.03;;;28.63;;
77111;SDS011;66064;50.226;14.344;2023-01-23T08:19:32;40.25;;;28.92;;
77111;SDS011;66064;50.226;14.344;2023-01-23T08:21:58;36.05;;;27.88;;
77111;SDS011;66064;50.226;14.344;2023-01-23T08:24:42;37.75;;;25.58;;
77111;SDS011;66064;50.226;14.344;2023-01-23T08:27:17;32.05;;;24.25;;
77111;SDS011;66064;50.226;14.344;2023-01-23T08:29:43;37.55;;;27.65;;
77111;SDS011;66064;50.226;14.344;2023-01-23T08:32:09;34.38;;;24.88;;
77111;SDS011;66064;50.226;14.344;2023-01-23T08:34:35;35.38;;;25.48;;
77111;SDS011;66064;50.226;14.344;2023-01-23T08:37:01;35.88;;;29.20;;
77111;SDS011;66064;50.226;14.344;2023-01-23T08:39:29;35.65;;;28.90;;
77111;SDS011;66064;50.226;14.344;2023-01-23T08:42:04;33.80;;;26.67;;
77111;SDS011;66064;50.226;14.344;2023-01-23T08:44:50;30.10;;;23.30;;
77111;SDS011;66064;50.226;14.344;2023-01-23T08:47:15;31.98;;;24.13;;
77111;SDS011;66064;50.226;14.344;2023-01-23T08:49:42;33.75;;;25.38;;
77111;SDS011;66064;50.226;14.344;2023-01-23T08:52:07;30.80;;;21.88;;
77111;SDS011;66064;50.226;14.344;2023-01-23T08:54:36;32.55;;;22.85;;
77111;SDS011;66064;50.226;14.344;2023-01-23T08:57:08;33.63;;;22.73;;
77111;SDS011;66064;50.226;14.344;2023-01-23T08:59:34;32.65;;;25.52;;
77111;SDS011;66064;50.226;14.344;2023-01-23T09:01:59;34.63;;;24.92;;
77111;SDS011;66064;50.226;14.344;2023-01-23T09:04:33;32.63;;;25.73;;
77111;SDS011;66064;50.226;14.344;2023-01-23T09:07:02;37.42;;;26.65;;
77111;SDS011;66064;50.226;14.344;2023-01-23T09:09:37;33.20;;;25.83;;
77111;SDS011;66064;50.226;14.344;2023-01-23T09:12:03;39.58;;;24.90;;
77111;SDS011;66064;50.226;14.344;2023-01-23T09:14:29;34.60;;;26.30;;
77111;SDS011;66064;50.226;14.344;2023-01-23T09:16:55;41.45;;;30.80;;
77111;SDS011;66064;50.226;14.344;2023-01-23T09:19:21;38.45;;;28.45;;
77111;SDS011;66064;50.226;14.344;2023-01-23T09:21:51;33.63;;;25.58;;
77111;SDS011;66064;50.226;14.344;2023-01-23T09:24:29;43.63;;;29.00;;
77111;SDS011;66064;50.226;14.344;2023-01-23T09:26:55;35.30;;;26.88;;
77111;SDS011;66064;50.226;14.344;2023-01-23T09:29:21;40.63;;;26.95;;
77111;SDS011;66064;50.226;14.344;2023-01-23T09:31:46;32.42;;;26.58;;
77111;SDS011;66064;50.226;14.344;2023-01-23T09:34:12;31.35;;;25.08;;
77111;SDS011;66064;50.226;14.344;2023-01-23T09:36:40;33.22;;;23.63;;
77111;SDS011;66064;50.226;14.344;2023-01-23T09:39:06;32.40;;;23.50;;
77111;SDS011;66064;50.226;14.344;2023-01-23T09:41:36;36.55;;;24.30;;
77111;SDS011;66064;50.226;14.344;2023-01-23T09:44:09;34.75;;;24.45;;
77111;SDS011;66064;50.226;14.344;2023-01-23T09:47:15;37.55;;;24.13;;
77111;SDS011;66064;50.226;14.344;2023-01-23T09:57:56;35.28;;;25.50;;
77111;SDS011;66064;50.226;14.344;2023-01-23T10:00:26;32.47;;;22.92;;
77111;SDS011;66064;50.226;14.344;2023-01-23T10:03:12;35.58;;;24.00;;
77111;SDS011;66064;50.226;14.344;2023-01-23T10:16:44;26.88;;;21.20;;
77111;SDS011;66064;50.226;14.344;2023-01-23T10:25:09;25.60;;;22.80;;
77111;SDS011;66064;50.226;14.344;2023-01-23T10:27:47;26.83;;;20.02;;
77111;SDS011;66064;50.226;14.344;2023-01-23T10:33:02;23.88;;;18.05;;
77111;SDS011;66064;50.226;14.344;2023-01-23T10:41:13;27.25;;;19.90;;
77111;SDS011;66064;50.226;14.344;2023-01-23T10:43:48;30.08;;;21.77;;
77111;SDS011;66064;50.226;14.344;2023-01-23T10:46:18;24.88;;;20.23;;
77111;SDS011;66064;50.226;14.344;2023-01-23T10:48:49;28.92;;;21.65;;
77111;SDS011;66064;50.226;14.344;2023-01-23T10:56:51;30.25;;;22.20;;
77111;SDS011;66064;50.226;14.344;2023-01-23T10:59:25;28.00;;;21.08;;
77111;SDS011;66064;50.226;14.344;2023-01-23T11:02:25;24.05;;;19.75;;
77111;SDS011;66064;50.226;14.344;2023-01-23T11:04:53;22.10;;;19.73;;
77111;SDS011;66064;50.226;14.344;2023-01-23T11:07:21;27.23;;;21.25;;
77111;SDS011;66064;50.226;14.344;2023-01-23T11:09:58;22.50;;;19.25;;
77111;SDS011;66064;50.226;14.344;2023-01-23T11:12:28;23.88;;;18.77;;
77111;SDS011;66064;50.226;14.344;2023-01-23T11:15:18;23.42;;;19.08;;
77111;SDS011;66064;50.226;14.344;2023-01-23T11:17:56;22.75;;;18.00;;
77111;SDS011;66064;50.226;14.344;2023-01-23T11:20:27;23.25;;;17.88;;
77111;SDS011;66064;50.226;14.344;2023-01-23T11:23:19;26.90;;;20.08;;
77111;SDS011;66064;50.226;14.344;2023-01-23T11:29:13;23.70;;;18.25;;
77111;SDS011;66064;50.226;14.344;2023-01-23T11:31:21;23.77;;;18.92;;
77111;SDS011;66064;50.226;14.344;2023-01-23T11:38:51;23.10;;;18.88;;
77111;SDS011;66064;50.226;14.344;2023-01-23T11:41:23;25.80;;;19.92;;
77111;SDS011;66064;50.226;14.344;2023-01-23T11:43:56;28.30;;;22.60;;
77111;SDS011;66064;50.226;14.344;2023-01-23T11:49:22;22.02;;;18.75;;
77111;SDS011;66064;50.226;14.344;2023-01-23T11:52:08;23.05;;;17.38;;
77111;SDS011;66064;50.226;14.344;2023-01-23T11:54:51;26.20;;;19.90;;
77111;SDS011;66064;50.226;14.344;2023-01-23T12:00:43;23.23;;;19.17;;
77111;SDS011;66064;50.226;14.344;2023-01-23T12:03:18;25.70;;;19.20;;
77111;SDS011;66064;50.226;14.344;2023-01-23T12:11:27;23.80;;;19.70;;
77111;SDS011;66064;50.226;14.344;2023-01-23T12:17:14;28.10;;;20.65;;
77111;SDS011;66064;50.226;14.344;2023-01-23T12:20:14;24.02;;;19.25;;
77111;SDS011;66064;50.226;14.344;2023-01-23T12:22:49;27.08;;;21.08;;
77111;SDS011;66064;50.226;14.344;2023-01-23T12:25:50;26.92;;;20.25;;
77111;SDS011;66064;50.226;14.344;2023-01-23T12:31:00;24.42;;;19.15;;
77111;SDS011;66064;50.226;14.344;2023-01-23T12:37:02;27.33;;;21.45;;
77111;SDS011;66064;50.226;14.344;2023-01-23T12:39:53;25.33;;;20.90;;
77111;SDS011;66064;50.226;14.344;2023-01-23T12:42:20;23.38;;;19.17;;
77111;SDS011;66064;50.226;14.344;2023-01-23T12:44:57;26.90;;;20.73;;
77111;SDS011;66064;50.226;14.344;2023-01-23T12:47:52;31.58;;;20.25;;
77111;SDS011;66064;50.226;14.344;2023-01-23T12:56:19;24.30;;;19.98;;
77111;SDS011;66064;50.226;14.344;2023-01-23T13:13:54;19.10;;;17.17;;
77111;SDS011;66064;50.226;14.344;2023-01-23T13:16:22;25.17;;;18.20;;
77111;SDS011;66064;50.226;14.344;2023-01-23T13:18:58;24.92;;;20.60;;
77111;SDS011;66064;50.226;14.344;2023-01-23T13:25:02;22.38;;;20.17;;
77111;SDS011;66064;50.226;14.344;2023-01-23T13:30:35;20.67;;;18.45;;
77111;SDS011;66064;50.226;14.344;2023-01-23T13:32:59;23.00;;;19.08;;
77111;SDS011;66064;50.226;14.344;2023-01-23T13:43:50;22.20;;;19.52;;
77111;SDS011;66064;50.226;14.344;2023-01-23T13:52:40;27.08;;;22.42;;
77111;SDS011;66064;50.226;14.344;2023-01-23T13:55:38;21.38;;;17.40;;
77111;SDS011;66064;50.226;14.344;2023-01-23T13:58:26;21.80;;;19.10;;
77111;SDS011;66064;50.226;14.344;2023-01-23T14:00:58;21.75;;;19.52;;
77111;SDS011;66064;50.226;14.344;2023-01-23T14:03:49;22.50;;;20.13;;
77111;SDS011;66064;50.226;14.344;2023-01-23T14:09:17;24.50;;;22.13;;
77111;SDS011;66064;50.226;14.344;2023-01-23T14:11:45;25.70;;;19.95;;
77111;SDS011;66064;50.226;14.344;2023-01-23T14:14:13;23.75;;;20.08;;
77111;SDS011;66064;50.226;14.344;2023-01-23T14:16:58;22.38;;;18.80;;
77111;SDS011;66064;50.226;14.344;2023-01-23T14:19:27;21.15;;;19.23;;
77111;SDS011;66064;50.226;14.344;2023-01-23T14:21:58;25.63;;;19.90;;
77111;SDS011;66064;50.226;14.344;2023-01-23T14:27:18;25.90;;;23.25;;
77111;SDS011;66064;50.226;14.344;2023-01-23T14:30:00;27.33;;;21.20;;
77111;SDS011;66064;50.226;14.344;2023-01-23T14:32:38;26.05;;;20.48;;
77111;SDS011;66064;50.226;14.344;2023-01-23T14:35:15;25.33;;;20.33;;
77111;SDS011;66064;50.226;14.344;2023-01-23T14:37:51;27.92;;;21.90;;
77111;SDS011;66064;50.226;14.344;2023-01-23T14:40:19;25.15;;;21.08;;
77111;SDS011;66064;50.226;14.344;2023-01-23T14:42:51;24.95;;;19.63;;
77111;SDS011;66064;50.226;14.344;2023-01-23T14:45:21;29.70;;;22.65;;
77111;SDS011;66064;50.226;14.344;2023-01-23T14:47:47;32.75;;;24.92;;
77111;SDS011;66064;50.226;14.344;2023-01-23T14:50:17;28.33;;;23.23;;
77111;SDS011;66064;50.226;14.344;2023-01-23T14:52:55;29.27;;;22.80;;
77111;SDS011;66064;50.226;14.344;2023-01-23T14:55:29;27.70;;;20.38;;
77111;SDS011;66064;50.226;14.344;2023-01-23T14:57:57;30.85;;;21.23;;
77111;SDS011;66064;50.226;14.344;2023-01-23T15:00:25;36.47;;;27.35;;
77111;SDS011;66064;50.226;14.344;2023-01-23T15:02:56;35.95;;;28.13;;
77111;SDS011;66064;50.226;14.344;2023-01-23T15:05:54;35.97;;;28.75;;
77111;SDS011;66064;50.226;14.344;2023-01-23T15:08:25;36.20;;;24.58;;
77111;SDS011;66064;50.226;14.344;2023-01-23T15:10:56;36.00;;;25.48;;
77111;SDS011;66064;50.226;14.344;2023-01-23T15:16:28;37.15;;;26.30;;
77111;SDS011;66064;50.226;14.344;2023-01-23T15:21:33;42.15;;;29.38;;
77111;SDS011;66064;50.226;14.344;2023-01-23T15:26:34;35.63;;;26.95;;
77111;SDS011;66064;50.226;14.344;2023-01-23T15:31:38;31.45;;;23.63;;
77111;SDS011;66064;50.226;14.344;2023-01-23T15:39:35;35.35;;;27.70;;
77111;SDS011;66064;50.226;14.344;2023-01-23T15:44:36;41.13;;;27.15;;
77111;SDS011;66064;50.226;14.344;2023-01-23T15:47:03;42.40;;;30.80;;
77111;SDS011;66064;50.226;14.344;2023-01-23T15:49:38;42.97;;;29.75;;
77111;SDS011;66064;50.226;14.344;2023-01-23T15:55:00;50.58;;;35.22;;
77111;SDS011;66064;50.226;14.344;2023-01-23T15:57:28;43.22;;;28.23;;
77111;SDS011;66064;50.226;14.344;2023-01-23T16:00:14;44.67;;;29.58;;
77111;SDS011;66064;50.226;14.344;2023-01-23T16:02:43;42.88;;;30.30;;
77111;SDS011;66064;50.226;14.344;2023-01-23T16:05:10;38.72;;;27.48;;
77111;SDS011;66064;50.226;14.344;2023-01-23T16:07:39;38.05;;;30.15;;
77111;SDS011;66064;50.226;14.344;2023-01-23T16:10:19;46.05;;;33.83;;
77111;SDS011;66064;50.226;14.344;2023-01-23T16:12:50;44.35;;;32.25;;
77111;SDS011;66064;50.226;14.344;2023-01-23T16:15:19;36.35;;;26.75;;
77111;SDS011;66064;50.226;14.344;2023-01-23T16:17:49;34.63;;;28.70;;
77111;SDS011;66064;50.226;14.344;2023-01-23T16:20:17;40.75;;;29.20;;
77111;SDS011;66064;50.226;14.344;2023-01-23T16:22:48;42.33;;;33.10;;
77111;SDS011;66064;50.226;14.344;2023-01-23T16:27:44;43.95;;;30.75;;
77111;SDS011;66064;50.226;14.344;2023-01-23T16:30:16;39.45;;;28.48;;
77111;SDS011;66064;50.226;14.344;2023-01-23T16:32:43;37.25;;;26.92;;
77111;SDS011;66064;50.226;14.344;2023-01-23T16:35:10;38.47;;;28.58;;
77111;SDS011;66064;50.226;14.344;2023-01-23T16:37:38;46.63;;;32.53;;
77111;SDS011;66064;50.226;14.344;2023-01-23T16:40:13;46.08;;;33.13;;
77111;SDS011;66064;50.226;14.344;2023-01-23T16:42:42;40.60;;;28.45;;
77111;SDS011;66064;50.226;14.344;2023-01-23T16:45:20;39.00;;;25.95;;
77111;SDS011;66064;50.226;14.344;2023-01-23T16:47:54;39.28;;;29.60;;
77111;SDS011;66064;50.226;14.344;2023-01-23T16:50:34;35.70;;;25.40;;
77111;SDS011;66064;50.226;14.344;2023-01-23T16:53:05;33.35;;;26.58;;
77111;SDS011;66064;50.226;14.344;2023-01-23T16:55:38;31.20;;;26.02;;
77111;SDS011;66064;50.226;14.344;2023-01-23T16:58:05;34.42;;;28.45;;
77111;SDS011;66064;50.226;14.344;2023-01-23T17:00:38;36.78;;;24.95;;
77111;SDS011;66064;50.226;14.344;2023-01-23T17:03:06;29.33;;;23.98;;
77111;SDS011;66064;50.226;14.344;2023-01-23T17:05:34;30.20;;;21.77;;
77111;SDS011;66064;50.226;14.344;2023-01-23T17:08:19;28.95;;;20.83;;
77111;SDS011;66064;50.226;14.344;2023-01-23T17:10:50;30.60;;;23.02;;
77111;SDS011;66064;50.226;14.344;2023-01-23T17:13:22;32.83;;;22.50;;
77111;SDS011;66064;50.226;14.344;2023-01-23T17:15:54;32.97;;;25.13;;
77111;SDS011;66064;50.226;14.344;2023-01-23T17:18:37;35.95;;;23.70;;
77111;SDS011;66064;50.226;14.344;2023-01-23T17:21:04;33.40;;;25.70;;
77111;SDS011;66064;50.226;14.344;2023-01-23T17:23:37;32.67;;;22.85;;
77111;SDS011;66064;50.226;14.344;2023-01-23T17:26:03;31.63;;;24.05;;
77111;SDS011;66064;50.226;14.344;2023-01-23T17:28:29;34.60;;;27.10;;